createdAt,value
2023-01-30T00:01:07.130Z,12.35
2023-01-30T00:03:34.332Z,14.50
2023-01-30T00:06:01.226Z,12.25
2023-01-30T00:08:28.145Z,13.00
2023-01-30T00:10:55.044Z,13.05
2023-01-30T00:13:22.141Z,12.02
2023-01-30T00:15:49.047Z,12.25
2023-01-30T00:18:15.944Z,12.55
2023-01-30T00:20:42.830Z,12.15
2023-01-30T00:23:09.719Z,13.15
2023-01-30T00:25:36.720Z,13.02
2023-01-30T00:28:03.837Z,12.52
2023-01-30T00:30:31.360Z,11.40
2023-01-30T00:32:59.709Z,13.07
2023-01-30T00:35:30.345Z,11.60
2023-01-30T00:37:59.583Z,14.15
2023-01-30T00:40:29.354Z,13.45
2023-01-30T00:43:15.079Z,12.18
2023-01-30T00:46:04.236Z,11.00
2023-01-30T00:48:32.076Z,10.60
2023-01-30T00:51:00.105Z,9.40
2023-01-30T00:53:27.401Z,12.00
2023-01-30T00:55:55.844Z,12.48
2023-01-30T00:58:26.020Z,12.88
2023-01-30T01:00:53.690Z,12.15
2023-01-30T01:03:20.772Z,12.65
2023-01-30T01:05:48.626Z,11.20
2023-01-30T01:08:16.246Z,11.82
2023-01-30T01:10:43.548Z,12.52
2023-01-30T01:13:10.931Z,13.32
2023-01-30T01:15:37.983Z,13.65
2023-01-30T01:18:05.264Z,11.00
2023-01-30T01:20:32.359Z,12.32
2023-01-30T01:22:59.260Z,11.70
2023-01-30T01:25:26.244Z,11.65
2023-01-30T01:27:55.407Z,12.07
2023-01-30T01:30:22.846Z,11.07
2023-01-30T01:32:49.747Z,11.40
2023-01-30T01:35:17.023Z,11.30
2023-01-30T01:37:44.151Z,11.68
2023-01-30T01:40:38.654Z,9.20
2023-01-30T01:43:25.990Z,12.05
2023-01-30T01:46:09.893Z,11.15
2023-01-30T01:48:53.405Z,12.43
2023-01-30T01:51:40.213Z,11.15
2023-01-30T01:54:23.331Z,11.75
2023-01-30T01:56:51.546Z,11.88
2023-01-30T01:59:39.269Z,12.68
2023-01-30T02:02:14.354Z,11.35
2023-01-30T02:05:06.381Z,11.63
2023-01-30T02:07:47.120Z,12.55
2023-01-30T02:10:58.518Z,11.52
2023-01-30T02:13:26.404Z,11.70
2023-01-30T02:15:55.040Z,11.65
2023-01-30T02:18:22.045Z,10.60
2023-01-30T02:21:36.188Z,12.25
2023-01-30T02:24:30.948Z,12.20
2023-01-30T02:27:21.356Z,12.15
2023-01-30T02:30:22.097Z,12.98
2023-01-30T02:33:28.435Z,12.07
2023-01-30T02:36:15.487Z,11.35
2023-01-30T02:39:07.926Z,12.85
2023-01-30T02:42:25.532Z,12.40
2023-01-30T02:45:09.552Z,12.80
2023-01-30T02:48:07.599Z,12.63
2023-01-30T02:50:54.478Z,12.13
2023-01-30T02:53:21.820Z,11.25
2023-01-30T02:55:48.733Z,12.93
2023-01-30T02:58:22.873Z,12.60
2023-01-30T03:01:07.464Z,11.55
2023-01-30T03:04:27.581Z,12.15
2023-01-30T03:07:49.365Z,11.90
2023-01-30T03:10:24.079Z,12.57
2023-01-30T03:13:16.392Z,9.88
2023-01-30T03:16:31.498Z,12.93
2023-01-30T03:19:03.385Z,11.57
2023-01-30T03:21:30.390Z,12.93
2023-01-30T03:23:57.649Z,12.23
2023-01-30T03:26:36.286Z,11.93
2023-01-30T03:29:04.425Z,13.23
2023-01-30T03:31:31.332Z,12.63
2023-01-30T03:33:58.303Z,12.05
2023-01-30T03:36:25.276Z,12.77
2023-01-30T03:38:52.678Z,11.73
2023-01-30T03:41:19.577Z,11.55
2023-01-30T03:43:46.450Z,12.52
2023-01-30T03:46:13.349Z,13.63
2023-01-30T03:48:40.214Z,11.82
2023-01-30T03:51:07.073Z,11.60
2023-01-30T03:53:33.943Z,12.43
2023-01-30T03:56:00.801Z,10.20
2023-01-30T03:58:27.886Z,10.70
2023-01-30T04:00:57.345Z,11.45
2023-01-30T04:03:24.793Z,12.35
2023-01-30T04:05:51.657Z,10.63
2023-01-30T04:08:18.509Z,8.93
2023-01-30T04:10:45.374Z,9.95
2023-01-30T04:13:12.236Z,10.95
2023-01-30T04:15:39.108Z,10.43
2023-01-30T04:18:06.205Z,10.65
2023-01-30T04:20:33.250Z,11.60
2023-01-30T04:23:00.115Z,9.80
2023-01-30T04:25:26.980Z,11.15
2023-01-30T04:27:53.869Z,12.05
2023-01-30T04:30:21.024Z,10.77
2023-01-30T04:32:47.969Z,9.60
2023-01-30T04:35:15.040Z,9.85
2023-01-30T04:37:42.015Z,11.15
2023-01-30T04:40:10.114Z,13.13
2023-01-30T04:42:37.180Z,10.75
2023-01-30T04:45:04.686Z,12.25
2023-01-30T04:47:31.627Z,11.95
2023-01-30T04:49:58.576Z,9.65
2023-01-30T04:52:25.483Z,10.25
2023-01-30T04:54:52.325Z,9.95
2023-01-30T04:57:19.171Z,10.55
2023-01-30T04:59:46.015Z,13.50
2023-01-30T05:02:12.946Z,7.75
2023-01-30T05:04:39.831Z,10.38
2023-01-30T05:07:06.681Z,9.27
2023-01-30T05:09:33.568Z,11.27
2023-01-30T05:12:00.436Z,10.85
2023-01-30T05:14:27.290Z,9.75
2023-01-30T05:16:54.189Z,9.35
2023-01-30T05:19:21.066Z,8.70
2023-01-30T05:21:47.910Z,11.75
2023-01-30T05:24:14.765Z,9.32
2023-01-30T05:26:41.663Z,9.13
2023-01-30T05:29:10.890Z,10.00
2023-01-30T05:31:38.763Z,10.50
2023-01-30T05:34:05.953Z,11.50
2023-01-30T05:36:32.812Z,10.45
2023-01-30T05:38:59.698Z,10.10
2023-01-30T05:41:26.548Z,11.13
2023-01-30T05:43:53.451Z,11.18
2023-01-30T05:46:21.342Z,9.95
2023-01-30T05:48:48.355Z,12.15
2023-01-30T05:51:25.503Z,12.40
2023-01-30T05:53:53.379Z,12.02
2023-01-30T05:56:20.690Z,10.02
2023-01-30T05:58:53.608Z,11.07
2023-01-30T06:01:22.032Z,9.27
2023-01-30T06:03:49.988Z,9.05
2023-01-30T06:06:17.252Z,10.60
2023-01-30T06:08:44.545Z,9.65
2023-01-30T06:11:18.265Z,10.57
2023-01-30T06:13:45.755Z,9.50
2023-01-30T06:16:18.063Z,8.77
2023-01-30T06:18:47.089Z,9.75
2023-01-30T06:21:15.766Z,9.27
2023-01-30T06:23:43.829Z,9.15
2023-01-30T06:26:11.026Z,10.95
2023-01-30T06:28:38.382Z,11.27
2023-01-30T06:31:09.332Z,11.32
2023-01-30T06:33:36.356Z,9.98
2023-01-30T06:36:04.105Z,9.52
2023-01-30T06:38:31.242Z,13.98
2023-01-30T06:40:58.124Z,19.27
2023-01-30T06:43:25.287Z,11.00
2023-01-30T06:45:52.202Z,10.32
2023-01-30T06:48:19.686Z,12.07
2023-01-30T06:50:47.985Z,9.05
2023-01-30T06:53:14.869Z,7.60
2023-01-30T06:55:41.723Z,7.03
2023-01-30T06:58:13.803Z,8.05
2023-01-30T07:00:43.040Z,8.73
2023-01-30T07:03:16.663Z,10.18
2023-01-30T07:05:47.325Z,8.52
2023-01-30T07:08:16.516Z,7.03
2023-01-30T07:10:44.616Z,7.88
2023-01-30T07:13:12.799Z,5.68
2023-01-30T07:15:39.701Z,10.25
2023-01-30T07:18:06.834Z,9.15
2023-01-30T07:20:33.986Z,10.27
2023-01-30T07:23:01.354Z,8.77
2023-01-30T07:25:30.062Z,7.70
2023-01-30T07:28:02.852Z,6.88
2023-01-30T07:30:35.901Z,7.03
2023-01-30T07:33:06.466Z,8.30
2023-01-30T07:35:37.116Z,7.32
2023-01-30T07:38:05.458Z,5.60
2023-01-30T07:40:32.747Z,7.53
2023-01-30T07:43:11.560Z,6.25
2023-01-30T07:45:45.903Z,8.45
2023-01-30T07:48:17.493Z,6.10
2023-01-30T07:50:45.997Z,7.70
2023-01-30T07:53:18.361Z,6.70
2023-01-30T07:55:45.874Z,9.60
2023-01-30T07:58:17.095Z,8.40
2023-01-30T08:00:45.231Z,7.95
2023-01-30T08:03:15.356Z,7.85
2023-01-30T08:05:46.684Z,6.93
2023-01-30T08:08:13.693Z,7.13
2023-01-30T08:10:40.638Z,8.25
2023-01-30T08:13:07.591Z,6.43
2023-01-30T08:15:34.513Z,7.60
2023-01-30T08:18:01.684Z,9.75
2023-01-30T08:20:28.817Z,10.95
2023-01-30T08:22:55.856Z,6.43
2023-01-30T08:25:23.499Z,5.95
2023-01-30T08:27:51.378Z,7.32
2023-01-30T08:30:20.580Z,8.05
2023-01-30T08:32:48.682Z,6.47
2023-01-30T08:35:15.633Z,6.13
2023-01-30T08:37:43.363Z,5.75
2023-01-30T08:40:12.957Z,6.32
2023-01-30T08:42:39.822Z,5.95
2023-01-30T08:45:07.886Z,6.72
2023-01-30T08:47:35.468Z,7.88
2023-01-30T08:50:04.722Z,7.13
2023-01-30T08:52:33.726Z,6.03
2023-01-30T08:55:00.578Z,5.63
2023-01-30T08:57:27.561Z,5.70
2023-01-30T08:59:54.448Z,5.35
2023-01-30T09:03:46.156Z,5.28
2023-01-30T09:06:13.073Z,5.80
2023-01-30T09:08:39.926Z,8.15
2023-01-30T09:11:07.436Z,7.68
2023-01-30T09:13:35.493Z,6.43
2023-01-30T09:16:04.005Z,7.35
2023-01-30T09:18:30.927Z,7.20
2023-01-30T09:21:05.874Z,7.63
2023-01-30T09:23:32.780Z,7.10
2023-01-30T09:26:00.327Z,8.15
2023-01-30T09:28:27.618Z,4.20
2023-01-30T09:30:58.716Z,3.58
2023-01-30T09:33:25.850Z,5.63
2023-01-30T09:35:53.202Z,6.47
2023-01-30T09:38:21.515Z,6.68
2023-01-30T09:41:06.418Z,6.15
2023-01-30T09:44:37.199Z,6.88
2023-01-30T09:47:51.245Z,7.85
2023-01-30T09:50:41.598Z,6.53
2023-01-30T09:53:30.211Z,7.60
2023-01-30T09:55:59.325Z,7.32
2023-01-30T09:58:51.322Z,6.80
2023-01-30T10:01:56.310Z,6.53
2023-01-30T10:04:42.034Z,7.35
2023-01-30T10:08:09.956Z,5.88
2023-01-30T10:11:09.553Z,5.88
2023-01-30T10:14:17.072Z,6.10
2023-01-30T10:17:34.027Z,5.43
2023-01-30T10:20:32.491Z,5.90
2023-01-30T10:23:44.479Z,7.03
2023-01-30T10:26:19.194Z,6.13
2023-01-30T10:29:21.864Z,5.45
2023-01-30T10:32:25.990Z,5.20
2023-01-30T10:35:10.173Z,4.68
2023-01-30T10:37:55.910Z,5.47
2023-01-30T10:40:42.021Z,4.88
2023-01-30T10:43:36.799Z,5.28
2023-01-30T10:47:03.997Z,4.75
2023-01-30T10:49:43.325Z,4.38
2023-01-30T10:52:56.127Z,4.70
2023-01-30T10:55:40.645Z,5.10
2023-01-30T10:58:42.769Z,2.85
2023-01-30T11:01:44.934Z,6.32
2023-01-30T11:04:40.476Z,4.55
2023-01-30T11:07:08.343Z,3.70
2023-01-30T11:09:47.937Z,4.00
2023-01-30T11:12:15.953Z,5.05
2023-01-30T11:15:01.250Z,4.78
2023-01-30T11:17:39.807Z,4.88
2023-01-30T11:20:22.479Z,4.20
2023-01-30T11:23:05.767Z,3.60
2023-01-30T11:25:52.872Z,4.85
2023-01-30T11:28:27.139Z,4.15
2023-01-30T11:30:59.885Z,6.20
2023-01-30T11:33:38.155Z,8.43
2023-01-30T11:36:29.114Z,6.70
2023-01-30T11:39:28.108Z,3.70
2023-01-30T11:41:58.605Z,2.90
2023-01-30T11:44:35.085Z,5.32
2023-01-30T11:47:24.023Z,4.82
2023-01-30T11:49:59.897Z,4.20
2023-01-30T11:52:43.072Z,7.43
2023-01-30T11:55:21.100Z,5.05
2023-01-30T11:57:58.447Z,3.28
2023-01-30T12:00:46.343Z,4.10
2023-01-30T12:03:23.438Z,3.60
2023-01-30T12:05:50.773Z,3.22
2023-01-30T12:08:31.106Z,3.97
2023-01-30T12:11:03.228Z,4.38
2023-01-30T12:13:45.367Z,4.05
2023-01-30T12:17:04.246Z,2.38
2023-01-30T12:20:21.216Z,3.20
2023-01-30T12:23:14.354Z,4.15
2023-01-30T12:26:05.278Z,4.00
2023-01-30T12:28:48.206Z,3.35
2023-01-30T12:31:44.011Z,3.83
2023-01-30T12:34:11.002Z,2.90
2023-01-30T12:37:29.177Z,3.65
2023-01-30T12:40:56.965Z,3.30
2023-01-30T12:44:15.334Z,3.58
2023-01-30T12:47:42.346Z,3.47
2023-01-30T12:50:55.942Z,4.47
2023-01-30T12:54:11.354Z,2.40
2023-01-30T12:57:02.786Z,3.75
2023-01-30T12:59:58.645Z,3.50
2023-01-30T13:03:34.499Z,2.63
2023-01-30T13:06:40.442Z,3.38
2023-01-30T13:09:47.330Z,3.17
2023-01-30T13:12:56.595Z,2.78
2023-01-30T13:16:00.309Z,4.10
2023-01-30T13:18:55.955Z,3.22
2023-01-30T13:21:42.828Z,3.90
2023-01-30T13:24:34.040Z,3.58
2023-01-30T13:27:09.290Z,4.10
2023-01-30T13:29:41.877Z,4.32
2023-01-30T13:32:52.824Z,4.32
2023-01-30T13:35:51.199Z,4.60
2023-01-30T13:38:27.145Z,3.67
2023-01-30T13:41:00.293Z,5.78
2023-01-30T13:43:40.827Z,3.35
2023-01-30T13:46:18.198Z,4.05
2023-01-30T13:49:14.606Z,3.92
2023-01-30T13:52:06.515Z,4.55
2023-01-30T13:55:29.556Z,4.60
2023-01-30T13:58:25.074Z,4.10
2023-01-30T14:00:55.347Z,4.22
2023-01-30T14:03:31.627Z,5.40
2023-01-30T14:06:02.953Z,2.50
2023-01-30T14:08:58.998Z,3.10
2023-01-30T14:11:40.859Z,2.88
2023-01-30T14:14:24.976Z,3.13
2023-01-30T14:17:09.956Z,3.28
2023-01-30T14:20:20.667Z,3.38
2023-01-30T14:22:47.447Z,3.58
2023-01-30T14:25:26.025Z,4.65
2023-01-30T14:28:16.692Z,3.55
2023-01-30T14:30:54.033Z,4.57
2023-01-30T14:33:23.856Z,4.45
2023-01-30T14:36:02.879Z,3.97
2023-01-30T14:38:39.321Z,3.60
2023-01-30T14:41:06.939Z,4.43
2023-01-30T14:43:42.810Z,4.70
2023-01-30T14:46:18.872Z,5.75
2023-01-30T14:48:49.970Z,6.55
2023-01-30T14:51:43.407Z,3.60
2023-01-30T14:54:13.544Z,3.28
2023-01-30T14:57:18.516Z,4.22
2023-01-30T15:00:15.344Z,3.40
2023-01-30T15:02:53.877Z,4.68
2023-01-30T15:05:33.624Z,3.55
2023-01-30T15:08:19.340Z,4.40
2023-01-30T15:11:20.998Z,5.40
2023-01-30T15:14:34.947Z,4.78
2023-01-30T15:17:50.439Z,4.32
2023-01-30T15:21:26.129Z,4.88
2023-01-30T15:24:27.012Z,4.80
2023-01-30T15:27:47.835Z,4.22
2023-01-30T15:30:57.235Z,4.80
2023-01-30T15:33:31.399Z,3.63
2023-01-30T15:36:00.615Z,4.28
2023-01-30T15:38:34.548Z,4.28
2023-01-30T15:41:06.748Z,4.60
2023-01-30T15:44:36.523Z,3.70
2023-01-30T15:48:03.218Z,3.22
2023-01-30T15:50:30.264Z,3.40
2023-01-30T15:52:58.126Z,4.93
2023-01-30T15:55:33.319Z,3.67
2023-01-30T15:58:10.324Z,5.43
2023-01-30T16:00:47.685Z,4.55
2023-01-30T16:03:34.120Z,3.42
2023-01-30T16:06:01.101Z,4.00
2023-01-30T16:08:32.758Z,4.13
2023-01-30T16:11:00.730Z,3.13
2023-01-30T16:13:29.826Z,2.95
2023-01-30T16:16:13.148Z,4.35
2023-01-30T16:19:00.455Z,5.60
2023-01-30T16:21:40.126Z,5.85
2023-01-30T16:24:24.673Z,4.32
2023-01-30T16:27:04.609Z,6.38
2023-01-30T16:29:50.899Z,4.65
2023-01-30T16:32:19.528Z,5.10
2023-01-30T16:34:49.823Z,7.30
2023-01-30T16:37:16.604Z,3.22
2023-01-30T16:39:46.276Z,4.53
2023-01-30T16:42:40.527Z,4.38
2023-01-30T16:45:13.549Z,4.70
2023-01-30T16:47:41.153Z,6.57
2023-01-30T16:50:22.312Z,6.72
2023-01-30T16:52:55.355Z,5.97
2023-01-30T16:55:26.625Z,6.25
2023-01-30T16:58:04.513Z,4.05
2023-01-30T17:00:38.666Z,4.60
2023-01-30T17:03:29.749Z,5.18
2023-01-30T17:05:58.916Z,5.80
2023-01-30T17:08:52.109Z,6.10
2023-01-30T17:11:40.959Z,6.25
2023-01-30T17:14:31.238Z,6.50
2023-01-30T17:17:09.351Z,6.35
2023-01-30T17:19:37.550Z,5.38
2023-01-30T17:22:24.267Z,5.60
2023-01-30T17:24:59.320Z,4.50
2023-01-30T17:27:30.260Z,5.60
2023-01-30T17:29:57.350Z,5.20
2023-01-30T17:32:25.001Z,4.68
2023-01-30T17:34:51.978Z,5.57
2023-01-30T17:37:22.197Z,4.45
2023-01-30T17:39:49.614Z,5.75
2023-01-30T17:42:21.924Z,5.20
2023-01-30T17:44:49.478Z,4.63
2023-01-30T17:47:16.463Z,4.07
2023-01-30T17:49:43.652Z,5.50
2023-01-30T17:52:14.544Z,6.40
2023-01-30T17:54:41.505Z,5.07
2023-01-30T17:57:15.508Z,4.30
2023-01-30T17:59:42.407Z,5.90
2023-01-30T18:02:13.312Z,5.10
2023-01-30T18:04:40.181Z,7.00
2023-01-30T18:07:14.211Z,5.38
2023-01-30T18:09:41.195Z,6.07
2023-01-30T18:12:08.373Z,6.32
2023-01-30T18:14:35.336Z,4.50
2023-01-30T18:17:02.529Z,6.07
2023-01-30T18:19:31.448Z,4.32
2023-01-30T18:21:58.525Z,6.40
2023-01-30T18:24:25.525Z,5.38
2023-01-30T18:26:52.927Z,4.97
2023-01-30T18:29:20.190Z,4.78
2023-01-30T18:31:47.489Z,4.22
2023-01-30T18:34:14.846Z,3.63
2023-01-30T18:36:42.186Z,5.05
2023-01-30T18:39:09.223Z,4.05
2023-01-30T18:41:36.152Z,3.78
2023-01-30T18:44:06.552Z,3.80
2023-01-30T18:46:34.074Z,4.85
2023-01-30T18:49:01.354Z,5.90
2023-01-30T18:51:33.936Z,4.20
2023-01-30T18:54:01.750Z,5.00
2023-01-30T18:56:34.182Z,3.05
2023-01-30T18:59:05.883Z,3.60
2023-01-30T19:01:39.741Z,4.07
2023-01-30T19:04:10.596Z,6.07
2023-01-30T19:06:43.007Z,4.80
2023-01-30T19:09:17.160Z,5.40
2023-01-30T19:12:02.646Z,5.18
2023-01-30T19:14:29.531Z,4.68
2023-01-30T19:16:56.619Z,4.95
2023-01-30T19:19:23.604Z,3.22
2023-01-30T19:21:52.106Z,4.50
2023-01-30T19:24:19.355Z,4.00
2023-01-30T19:26:47.774Z,8.75
2023-01-30T19:29:14.800Z,4.30
2023-01-30T19:31:42.249Z,4.40
2023-01-30T19:34:11.690Z,5.97
2023-01-30T19:36:38.798Z,5.88
2023-01-30T19:39:06.815Z,4.53
2023-01-30T19:41:37.066Z,5.65
2023-01-30T19:44:08.186Z,5.38
2023-01-30T19:46:36.479Z,4.68
2023-01-30T19:49:04.579Z,4.78
2023-01-30T19:51:34.844Z,4.93
2023-01-30T19:54:10.871Z,5.93
2023-01-30T19:56:40.800Z,4.15
2023-01-30T19:59:09.161Z,5.82
2023-01-30T20:01:39.721Z,5.65
2023-01-30T20:04:07.001Z,6.00
2023-01-30T20:06:36.236Z,5.65
2023-01-30T20:09:11.781Z,6.25
2023-01-30T20:11:41.828Z,5.88
2023-01-30T20:14:11.415Z,6.10
2023-01-30T20:16:39.072Z,6.75
2023-01-30T20:19:16.977Z,5.88
2023-01-30T20:21:45.312Z,4.90
2023-01-30T20:24:15.574Z,6.15
2023-01-30T20:26:47.812Z,6.85
2023-01-30T20:29:17.342Z,5.70
2023-01-30T20:31:55.673Z,5.88
2023-01-30T20:34:23.172Z,6.03
2023-01-30T20:36:50.315Z,7.15
2023-01-30T20:39:20.563Z,6.72
2023-01-30T20:41:47.974Z,5.95
2023-01-30T20:44:15.418Z,6.32
2023-01-30T20:46:48.975Z,6.75
2023-01-30T20:49:22.797Z,9.82
2023-01-30T20:51:54.356Z,11.68
2023-01-30T20:54:23.424Z,6.95
2023-01-30T20:56:53.955Z,8.57
2023-01-30T20:59:24.589Z,7.20
2023-01-30T21:01:53.165Z,8.40
2023-01-30T21:04:24.286Z,7.28
2023-01-30T21:06:51.691Z,7.90
2023-01-30T21:09:23.371Z,7.50
2023-01-30T21:11:53.212Z,7.43
2023-01-30T21:14:20.280Z,6.80
2023-01-30T21:16:48.310Z,6.60
2023-01-30T21:19:18.093Z,10.80
2023-01-30T21:21:54.857Z,11.73
2023-01-30T21:24:28.625Z,6.80
2023-01-30T21:26:57.352Z,8.13
2023-01-30T21:29:27.938Z,6.03
2023-01-30T21:31:57.369Z,5.72
2023-01-30T21:34:24.545Z,7.18
2023-01-30T21:37:10.179Z,5.82
2023-01-30T21:39:55.592Z,6.45
2023-01-30T21:42:41.063Z,4.78
2023-01-30T21:45:08.617Z,7.07
2023-01-30T21:47:35.685Z,6.45
2023-01-30T21:50:02.875Z,6.75
2023-01-30T21:52:33.172Z,9.07
2023-01-30T21:55:00.210Z,6.85
2023-01-30T21:57:27.097Z,5.95
2023-01-30T21:59:53.969Z,6.30
2023-01-30T22:02:20.907Z,7.07
2023-01-30T22:04:47.867Z,8.02
2023-01-30T22:07:14.780Z,6.10
2023-01-30T22:09:41.659Z,8.68
2023-01-30T22:12:08.548Z,8.30
2023-01-30T22:14:36.322Z,6.75
2023-01-30T22:17:03.519Z,6.38
2023-01-30T22:19:35.101Z,5.82
2023-01-30T22:22:03.053Z,5.68
2023-01-30T22:24:30.320Z,6.53
2023-01-30T22:26:57.940Z,6.30
2023-01-30T22:29:24.864Z,5.25
2023-01-30T22:31:51.840Z,5.97
2023-01-30T22:34:19.084Z,7.43
2023-01-30T22:36:47.695Z,5.43
2023-01-30T22:39:14.672Z,6.30
2023-01-30T22:41:41.648Z,6.55
2023-01-30T22:44:10.562Z,6.15
2023-01-30T22:46:41.179Z,6.10
2023-01-30T22:49:09.971Z,6.63
2023-01-30T22:51:43.334Z,6.75
2023-01-30T22:54:17.469Z,5.63
2023-01-30T22:56:48.773Z,5.50
2023-01-30T22:59:16.163Z,5.53
2023-01-30T23:01:48.255Z,5.53
2023-01-30T23:04:24.009Z,5.50
2023-01-30T23:06:52.444Z,6.05
2023-01-30T23:09:23.468Z,5.93
2023-01-30T23:12:16.292Z,4.95
2023-01-30T23:14:43.845Z,5.18
2023-01-30T23:17:29.780Z,6.57
2023-01-30T23:19:57.328Z,6.28
2023-01-30T23:22:24.634Z,6.32
2023-01-30T23:24:52.340Z,4.70
2023-01-30T23:27:21.105Z,6.72
2023-01-30T23:29:48.115Z,6.20
2023-01-30T23:32:15.411Z,6.32
2023-01-30T23:34:42.505Z,6.07
2023-01-30T23:37:09.514Z,5.97
2023-01-30T23:39:36.502Z,5.90
2023-01-30T23:42:03.639Z,5.15
2023-01-30T23:44:30.506Z,5.30
2023-01-30T23:46:57.562Z,6.18
2023-01-30T23:49:24.597Z,5.57
2023-01-30T23:51:51.487Z,5.57
2023-01-30T23:54:18.403Z,6.90
2023-01-30T23:56:45.396Z,5.68
2023-01-30T23:59:12.888Z,5.45
